Latest Coastal Weather Observations for Hopetoun North

IDW60701

Issued at 10:03 pm WST Tuesday 27 June 2017 (issued every 10 minutes, with the page automatically refreshed every 10 minutes)

About coastal observations | Map of coastal stations | Coastal observations for WA | Marine services | Other Formats
Station Details ID: 009961 Name: HOPETOUN NORTH Lat: -33.93 Lon: 120.13 Height: 26.0 m
Data from the previous 72 hours. | See also: Recent months at Hopetoun North
Date/Time
WST
Temp
°C
Wind Pressure Rain since
9am
mm
Weather Cloud Vis
km
Sea
Height
m
Swell
Dir  Spd
kts
Gust
kts
hPa Trend Height
m
Period
s
Dir
27/10:00pm 12.8 SSE 8 12 1031.5 - 0.8 - - - - - - -
27/09:30pm 12.4 SE 9 14 1031.3 - 0.6 - - - - - - -
27/09:00pm 12.3 ESE 4 5 1031.1 - 0.6 Recent precip. - - - - - -
27/08:30pm 13.4 SE 14 20 1031.0 - 0.0 - - - - - - -
27/08:00pm 13.8 SE 7 9 1030.4 - 0.0 - - - - - - -
27/07:30pm 13.4 SE 4 6 1030.3 - 0.0 - - - - - - -
27/07:00pm 14.2 SSE 9 14 1030.2 - 0.0 - - - - - - -
27/06:30pm 14.1 SSE 8 11 1029.7 - 0.0 - - - - - - -
27/06:00pm 14.7 S 10 13 1029.3 - 0.0 - - - - - - -
27/05:30pm 14.5 S 10 14 1029.0 - 0.0 - - - - - - -
27/05:00pm 13.9 SSE 5 7 1028.6 - 0.0 - - - - - - -
27/04:30pm 14.4 SSE 8 11 1028.3 - 0.0 - - - - - - -
27/04:00pm 15.3 S 7 11 1028.0 - 0.0 - - - - - - -
27/03:30pm 15.5 SSE 8 12 1027.9 - 0.0 - - - - - - -
27/03:00pm 15.8 S 10 13 1027.8 - 0.0 - - - - - - -
27/02:30pm 15.4 S 9 12 1027.5 - 0.0 - - - - - - -
27/02:00pm 16.2 S 10 15 1027.2 - 0.0 - - - - - - -
27/01:30pm 15.6 S 12 15 1027.1 - 0.0 - - - - - - -
27/01:00pm 14.7 S 7 11 1027.1 - 0.0 - - - - - - -
27/12:30pm 15.4 SSW 8 11 1027.4 - 0.0 - - - - - - -
27/12:00pm 15.1 SW 10 14 1027.6 - 0.0 - - - - - - -
27/11:30am 14.5 WSW 8 12 1027.7 - 0.0 - - - - - - -
27/11:00am 13.8 WSW 7 12 1028.1 - 0.0 - - - - - - -
27/10:30am 13.9 WSW 7 9 1027.9 - 0.0 - - - - - - -
27/10:00am 13.1 WSW 6 9 1027.9 - 0.0 - - - - - - -
27/09:30am 12.1 WSW 5 8 1027.9 - 0.0 - - - - - - -
27/09:00am 11.9 W 6 9 1027.5 - 6.4 - - - - - - -
27/08:30am 9.6 W 4 5 1027.2 - 6.4 - - - - - - -
27/08:00am 8.9 NW 4 5 1026.8 - 6.4 - - - - - - -
27/07:30am 7.9 WSW 3 4 1026.6 - 6.4 - - - - - - -
27/07:00am 8.2 NW 6 7 1026.0 - 6.4 - - - - - - -
27/06:30am 8.1 NW 5 6 1025.8 - 6.4 - - - - - - -
27/06:00am 7.9 NW 5 6 1025.5 - 6.4 - - - - - - -
27/05:30am 7.9 NW 6 7 1025.0 - 6.4 - - - - - - -
27/05:00am 8.3 WNW 5 6 1024.7 - 6.4 - - - - - - -
27/04:30am 8.4 WNW 4 6 1024.6 - 6.4 - - - - - - -
27/04:00am 8.2 NW 5 8 1024.4 - 6.4 - - - - - - -
27/03:30am 8.4 WNW 6 8 1024.3 - 6.4 - - - - - - -
27/03:00am 8.6 WNW 5 7 1024.4 - 6.4 - - - - - - -
27/02:30am 8.8 WNW 7 9 1024.3 - 6.4 - - - - - - -
27/02:00am 8.9 WNW 6 8 1024.4 - 6.4 - - - - - - -
27/01:30am 9.1 NW 4 6 1024.3 - 6.4 - - - - - - -
27/01:00am 9.7 NW 4 7 1024.2 - 6.4 - - - - - - -
27/12:30am 10.3 WNW 5 8 1024.3 - 6.4 - - - - - - -
27/12:00am 10.9 WNW 7 11 1024.3 - 6.4 Recent precip. - - - - - -
 
Date/Time
WST
Temp
°C
Wind Pressure Rain since
9am
mm
Weather Cloud Vis
km
Sea
Height
m
Swell
Dir  Spd
kts
Gust
kts
hPa Trend Height
m
Period
s
Dir
26/11:30pm 11.2 WNW 5 7 1024.5 - 6.4 - - - - - - -
26/11:00pm 12.0 W 5 7 1024.8 - 6.2 - - - - - - -
26/10:30pm 12.5 WSW 7 11 1025.0 - 6.0 - - - - - - -
26/10:00pm 12.3 SW 9 13 1025.0 - 5.8 - - - - - - -
26/09:30pm 11.9 SW 9 17 1024.9 - 5.4 - - - - - - -
26/09:00pm 11.7 WSW 10 15 1024.9 - 4.8 Rain - - - - - -
26/08:30pm 11.6 WNW 7 10 1024.7 - 3.4 - - - - - - -
26/08:00pm 11.6 NW 6 9 1024.6 - 3.0 - - - - - - -
26/07:30pm 11.4 NW 8 13 1024.7 - 2.8 - - - - - - -
26/07:00pm 12.3 W 11 18 1024.6 - 1.6 - - - - - - -
26/06:30pm 12.6 NW 4 6 1024.1 - 0.0 - - - - - - -
26/06:00pm 12.8 NNE 4 5 1023.7 - 0.0 - - - - - - -
26/05:30pm 13.0 NE 3 4 1023.5 - 0.0 - - - - - - -
26/05:00pm 13.3 NE 3 3 1023.2 - 0.0 - - - - - - -
26/04:30pm 14.3 CALM 0 0 1023.3 - 0.0 - - - - - - -
26/04:00pm 15.0 CALM 0 0 1023.5 - 0.0 - - - - - - -
26/03:30pm 15.5 SSW 1 3 1023.7 - 0.0 - - - - - - -
26/03:00pm 15.8 SSW 2 3 1023.8 - 0.0 - - - - - - -
26/02:30pm 15.1 SSW 3 5 1023.8 - 0.0 - - - - - - -
26/02:00pm 15.4 W 1 4 1024.0 - 0.0 - - - - - - -
26/01:30pm 15.9 WSW 5 7 1024.2 - 0.0 - - - - - - -
26/01:00pm 16.0 WSW 5 8 1024.6 - 0.0 - - - - - - -
26/12:30pm 16.1 WSW 5 9 1024.9 - 0.0 - - - - - - -
26/12:00pm 15.1 WSW 5 8 1025.5 - 0.0 - - - - - - -
26/11:30am 15.1 WSW 7 10 1026.0 - 0.0 - - - - - - -
26/11:00am 14.7 WSW 6 9 1026.4 - 0.0 - - - - - - -
26/10:30am 14.0 W 6 9 1026.7 - 0.0 - - - - - - -
26/10:00am 13.2 W 5 8 1026.8 - 0.0 - - - - - - -
26/09:30am 12.5 W 7 10 1026.9 - 0.0 - - - - - - -
26/09:00am 12.1 W 6 7 1026.7 - 1.0 - - - - - - -
26/08:30am 10.8 W 5 8 1026.7 - 1.0 - - - - - - -
26/08:00am 10.2 WNW 4 6 1026.6 - 1.0 - - - - - - -
26/07:30am 9.5 NW 5 7 1026.5 - 1.0 - - - - - - -
26/07:00am 9.1 NW 4 7 1026.3 - 1.0 - - - - - - -
26/06:30am 9.2 WNW 2 4 1026.1 - 1.0 - - - - - - -
26/06:00am 9.6 WNW 4 6 1026.0 - 1.0 - - - - - - -
26/05:30am 9.7 NW 5 7 1025.8 - 1.0 - - - - - - -
26/05:00am 9.7 WNW 5 7 1025.8 - 1.0 - - - - - - -
26/04:30am 9.7 NW 4 7 1025.7 - 1.0 - - - - - - -
26/04:00am 9.7 NW 5 7 1025.7 - 1.0 - - - - - - -
26/03:30am 8.6 NNW 4 5 1025.9 - 1.0 - - - - - - -
26/03:00am 8.4 N 4 5 1025.8 - 1.0 - - - - - - -
26/02:30am 8.2 N 4 5 1025.9 - 1.0 - - - - - - -
26/02:00am 8.8 N 3 5 1025.9 - 1.0 - - - - - - -
26/01:30am 9.3 NNW 4 5 1026.0 - 1.0 - - - - - - -
26/01:00am 9.2 NNW 4 5 1026.1 - 1.0 - - - - - - -
26/12:30am 8.9 W 4 6 1026.2 - 1.0 - - - - - - -
26/12:00am 8.9 WNW 4 5 1026.3 - 1.0 Recent precip. - - - - - -
 
Date/Time
WST
Temp
°C
Wind Pressure Rain since
9am
mm
Weather Cloud Vis
km
Sea
Height
m
Swell
Dir  Spd
kts
Gust
kts
hPa Trend Height
m
Period
s
Dir
25/11:30pm 9.8 NNW 5 6 1026.3 - 1.0 - - - - - - -
25/11:00pm 10.1 NW 4 5 1026.4 - 0.8 - - - - - - -
25/10:30pm 10.6 NNW 5 7 1026.5 - 0.8 - - - - - - -
25/10:00pm 11.0 N 1 3 1026.8 - 0.8 - - - - - - -
25/09:30pm 10.9 N 3 5 1026.7 - 0.8 - - - - - - -
25/09:00pm 11.6 NW 4 6 1026.7 - 0.8 - - - - - - -
25/08:30pm 11.8 SSE 5 7 1026.6 - 0.8 - - - - - - -
25/08:00pm 11.9 S 9 14 1026.7 - 0.8 - - - - - - -
25/07:30pm 12.0 W 5 7 1026.5 - 0.0 - - - - - - -
25/07:00pm 11.9 SW 1 2 1026.4 - 0.0 - - - - - - -
25/06:30pm 12.2 W 1 2 1026.5 - 0.0 - - - - - - -
25/06:00pm 12.5 SW 3 4 1026.3 - 0.0 - - - - - - -
25/05:30pm 12.8 S 5 7 1026.2 - 0.0 - - - - - - -
25/05:00pm 13.5 SSW 5 7 1026.0 - 0.0 - - - - - - -
25/04:30pm 14.0 SSW 5 7 1026.0 - 0.0 - - - - - - -
25/04:00pm 14.3 SSW 5 7 1026.0 - 0.0 - - - - - - -
25/03:30pm 14.1 WSW 3 5 1026.0 - 0.0 - - - - - - -
25/03:00pm 14.6 SSW 9 13 1025.9 - 0.0 - - - - - - -
25/02:30pm 14.7 SSW 8 12 1025.9 - 0.0 - - - - - - -
25/02:00pm 14.8 S 9 13 1025.8 - 0.0 - - - - - - -
25/01:30pm 14.4 S 9 13 1025.9 - 0.0 - - - - - - -
25/01:00pm 14.0 S 8 10 1026.0 - 0.0 - - - - - - -
25/12:30pm 14.2 WNW 3 5 1026.3 - 0.0 - - - - - - -
25/12:00pm 14.4 NW 4 6 1026.6 - 0.0 - - - - - - -
25/11:30am 14.3 NE 2 3 1027.0 - 0.0 - - - - - - -
25/11:00am 14.3 N 1 2 1027.4 - 0.0 - - - - - - -
25/10:30am 14.2 W 2 4 1027.5 - 0.0 - - - - - - -
25/10:00am 14.1 SW 4 6 1027.5 - 0.0 - - - - - - -
25/09:30am 13.9 SSE 6 10 1027.5 - 0.0 - - - - - - -
25/09:00am 13.0 S 7 10 1027.5 - 0.6 - - - - - - -
25/08:30am 11.2 SSW 4 10 1027.5 - 0.6 - - - - - - -
25/08:00am 11.3 WSW 3 5 1027.2 - 0.6 - - - - - - -
25/07:30am 10.8 W 4 5 1026.9 - 0.4 - - - - - - -
25/07:00am 11.0 WSW 4 6 1026.7 - 0.4 - - - - - - -
25/06:30am 11.5 SW 3 7 1026.4 - 0.4 - - - - - - -
25/06:00am 11.6 W 3 3 1026.1 - 0.4 - - - - - - -
25/05:30am 12.2 SW 8 11 1026.2 - 0.4 - - - - - - -
25/05:00am 12.4 SSW 10 14 1026.1 - 0.4 - - - - - - -
25/04:30am 11.4 WNW 2 3 1026.0 - 0.4 - - - - - - -
25/04:00am 12.7 SE 3 4 1026.0 - 0.4 - - - - - - -
25/03:30am 13.0 SE 5 8 1026.1 - 0.4 - - - - - - -
25/03:00am 12.9 SSE 4 6 1026.2 - 0.4 - - - - - - -
25/02:30am 12.6 SSE 3 5 1026.4 - 0.4 - - - - - - -
25/02:00am 12.7 S 5 9 1026.3 - 0.4 - - - - - - -
25/01:30am 12.4 SSE 5 7 1026.2 - 0.4 - - - - - - -
25/01:00am 12.9 S 6 8 1026.1 - 0.4 - - - - - - -
25/12:30am 13.1 S 7 10 1026.2 - 0.4 - - - - - - -
25/12:00am 13.1 S 8 11 1026.4 - 0.4 - - - - - - -
 
Date/Time
WST
Temp
°C
Wind Pressure Rain since
9am
mm
Weather Cloud Vis
km
Sea
Height
m
Swell
Dir  Spd
kts
Gust
kts
hPa Trend Height
m
Period
s
Dir
24/11:30pm 13.5 S 9 13 1026.5 - 0.4 - - - - - - -
24/11:00pm 13.5 S 10 13 1026.6 - 0.4 - - - - - - -
24/10:30pm 13.4 S 7 11 1026.5 - 0.4 - - - - - - -

Other Formats:

Comma delimited format used in spreadsheet applications
http://www.bom.gov.au/fwo/IDW60701/IDW60701.95635.axf

JavaScript Object Notation format (JSON) in row-major order
http://www.bom.gov.au/fwo/IDW60701/IDW60701.95635.json